createdAt,value
2018-08-04T00:00:45.223Z,16.63
2018-08-04T00:03:13.471Z,15.97
2018-08-04T00:05:42.724Z,16.43
2018-08-04T00:08:10.961Z,17.03
2018-08-04T00:10:39.185Z,17.17
2018-08-04T00:13:07.462Z,17.17
2018-08-04T00:15:35.693Z,16.37
2018-08-04T00:18:03.930Z,17.10
2018-08-04T00:20:32.187Z,17.00
2018-08-04T00:23:00.423Z,17.07
2018-08-04T00:25:28.658Z,17.00
2018-08-04T00:27:56.908Z,16.50
2018-08-04T00:30:25.132Z,17.53
2018-08-04T00:32:53.445Z,17.57
2018-08-04T00:35:21.689Z,17.10
2018-08-04T00:37:49.941Z,18.20
2018-08-04T00:40:18.191Z,18.30
2018-08-04T00:42:46.443Z,18.00
2018-08-04T00:45:14.732Z,17.83
2018-08-04T00:47:43.006Z,18.73
2018-08-04T00:50:11.515Z,19.43
2018-08-04T00:52:39.768Z,18.73
2018-08-04T00:55:08.035Z,18.60
2018-08-04T00:57:36.308Z,18.57
2018-08-04T01:00:05.329Z,19.67
2018-08-04T01:02:33.573Z,19.20
2018-08-04T01:05:01.817Z,19.47
2018-08-04T01:07:30.069Z,19.70
2018-08-04T01:10:00.780Z,20.13
2018-08-04T01:12:29.122Z,19.20
2018-08-04T01:14:57.546Z,19.20
2018-08-04T01:17:25.795Z,19.57
2018-08-04T01:19:53.776Z,19.20
2018-08-04T01:22:22.000Z,19.50
2018-08-04T01:24:50.445Z,18.43
2018-08-04T01:28:58.096Z,19.43
2018-08-04T01:31:26.404Z,19.80
2018-08-04T01:33:54.711Z,20.03
2018-08-04T01:36:22.964Z,20.50
2018-08-04T01:38:51.200Z,20.37
2018-08-04T01:41:19.449Z,20.77
2018-08-04T01:43:47.705Z,20.03
2018-08-04T01:46:15.960Z,20.97
2018-08-04T01:48:44.204Z,21.67
2018-08-04T01:51:12.448Z,20.73
2018-08-04T01:53:40.738Z,21.97
2018-08-04T01:56:08.937Z,22.13
2018-08-04T01:58:37.193Z,21.93
2018-08-04T02:01:05.457Z,22.40
2018-08-04T02:03:43.296Z,23.00
2018-08-04T02:06:11.601Z,22.47
2018-08-04T02:08:39.972Z,22.37
2018-08-04T02:11:08.257Z,22.27
2018-08-04T02:13:36.565Z,22.23
2018-08-04T02:16:09.840Z,22.87
2018-08-04T02:18:38.210Z,22.27
2018-08-04T02:21:06.501Z,22.57
2018-08-04T02:23:34.838Z,22.40
2018-08-04T02:26:03.073Z,23.00
2018-08-04T02:28:31.397Z,23.37
2018-08-04T02:30:59.662Z,23.03
2018-08-04T02:33:27.923Z,24.20
2018-08-04T02:35:56.205Z,24.50
2018-08-04T02:38:24.431Z,23.83
2018-08-04T02:40:52.686Z,23.80
2018-08-04T02:43:20.913Z,24.03
2018-08-04T02:45:49.170Z,25.47
2018-08-04T02:48:17.464Z,24.37
2018-08-04T02:50:45.775Z,23.97
2018-08-04T02:53:14.012Z,24.73
2018-08-04T02:55:42.253Z,25.13
2018-08-04T02:58:10.493Z,24.73
2018-08-04T03:00:38.736Z,24.13
2018-08-04T03:03:06.972Z,23.63
2018-08-04T03:05:35.213Z,24.17
2018-08-04T03:08:03.578Z,23.97
2018-08-04T03:10:31.824Z,24.37
2018-08-04T03:13:00.067Z,23.37
2018-08-04T03:15:28.308Z,23.30
2018-08-04T03:17:56.596Z,24.83
2018-08-04T03:20:24.880Z,24.23
2018-08-04T03:22:53.117Z,23.80
2018-08-04T03:25:21.404Z,23.70
2018-08-04T03:27:49.657Z,24.30
2018-08-04T03:30:17.903Z,23.83
2018-08-04T03:32:46.194Z,24.80
2018-08-04T03:35:14.456Z,24.63
2018-08-04T03:40:33.331Z,24.27
2018-08-04T03:43:01.604Z,24.60
2018-08-04T03:45:29.874Z,24.50
2018-08-04T03:47:58.130Z,24.87
2018-08-04T03:50:26.372Z,24.90
2018-08-04T03:52:54.687Z,24.97
2018-08-04T03:55:22.944Z,24.87
2018-08-04T03:57:51.296Z,24.03
2018-08-04T04:00:19.548Z,24.40
2018-08-04T04:02:47.797Z,24.17
2018-08-04T04:05:16.157Z,25.80
2018-08-04T04:07:44.400Z,23.83
2018-08-04T04:10:12.784Z,24.73
2018-08-04T04:12:41.077Z,24.80
2018-08-04T04:15:09.549Z,24.33
2018-08-04T04:17:43.177Z,24.73
2018-08-04T04:20:11.422Z,24.30
2018-08-04T04:22:39.676Z,24.50
2018-08-04T04:25:26.834Z,23.30
2018-08-04T04:27:55.204Z,23.83
2018-08-04T04:30:23.505Z,23.57
2018-08-04T04:32:51.787Z,23.53
2018-08-04T04:35:20.054Z,23.50
2018-08-04T04:37:48.337Z,23.90
2018-08-04T04:40:16.589Z,24.70
2018-08-04T04:42:44.969Z,23.90
2018-08-04T04:45:13.369Z,22.40
2018-08-04T04:47:41.633Z,23.57
2018-08-04T04:50:09.893Z,22.37
2018-08-04T04:52:38.145Z,25.07
2018-08-04T04:55:06.393Z,23.23
2018-08-04T04:57:34.697Z,22.77
2018-08-04T05:00:03.079Z,22.20
2018-08-04T05:02:31.355Z,23.90
2018-08-04T05:04:59.592Z,23.70
2018-08-04T05:07:27.851Z,23.03
2018-08-04T05:09:56.188Z,22.93
2018-08-04T05:12:24.440Z,23.80
2018-08-04T05:14:52.690Z,24.23
2018-08-04T05:17:20.925Z,22.73
2018-08-04T05:19:49.157Z,23.57
2018-08-04T05:22:17.408Z,23.13
2018-08-04T05:24:45.681Z,23.13
2018-08-04T05:27:13.937Z,22.90
2018-08-04T05:29:42.178Z,23.10
2018-08-04T05:32:10.421Z,23.67
2018-08-04T05:34:38.700Z,22.03
2018-08-04T05:37:06.977Z,25.80
2018-08-04T05:39:35.240Z,24.43
2018-08-04T05:42:03.493Z,24.27
2018-08-04T05:44:31.974Z,22.47
2018-08-04T05:47:00.204Z,21.43
2018-08-04T05:49:28.469Z,22.30
2018-08-04T05:51:56.777Z,25.03
2018-08-04T05:54:25.132Z,23.63
2018-08-04T05:56:53.447Z,24.17
2018-08-04T05:59:24.794Z,23.40
2018-08-04T06:01:53.064Z,22.43
2018-08-04T06:04:21.321Z,21.93
2018-08-04T06:06:49.638Z,23.20
2018-08-04T06:09:17.961Z,21.63
2018-08-04T06:11:46.221Z,20.97
2018-08-04T06:14:14.563Z,21.83
2018-08-04T06:16:42.857Z,21.60
2018-08-04T06:19:11.149Z,20.57
2018-08-04T06:21:39.437Z,21.20
2018-08-04T06:24:07.769Z,20.27
2018-08-04T06:26:36.065Z,19.73
2018-08-04T06:29:04.434Z,20.10
2018-08-04T06:31:32.733Z,19.00
2018-08-04T06:34:01.065Z,20.30
2018-08-04T06:36:29.450Z,21.20
2018-08-04T06:38:57.818Z,19.60
2018-08-04T06:41:29.039Z,19.13
2018-08-04T06:43:57.448Z,19.27
2018-08-04T06:46:25.762Z,18.10
2018-08-04T06:48:54.611Z,18.57
2018-08-04T06:51:22.946Z,18.97
2018-08-04T06:53:51.274Z,18.53
2018-08-04T06:56:19.539Z,17.83
2018-08-04T06:58:47.973Z,17.87
2018-08-04T07:01:16.274Z,18.60
2018-08-04T07:03:44.568Z,18.40
2018-08-04T07:06:12.861Z,17.93
2018-08-04T07:08:41.242Z,16.87
2018-08-04T07:11:10.951Z,18.43
2018-08-04T07:13:39.376Z,18.00
2018-08-04T07:16:07.653Z,16.93
2018-08-04T07:18:35.997Z,17.00
2018-08-04T07:21:04.444Z,17.25
2018-08-04T07:23:32.863Z,15.75
2018-08-04T07:26:01.310Z,16.83
2018-08-04T07:28:29.622Z,14.80
2018-08-04T07:30:58.209Z,15.40
2018-08-04T07:33:26.554Z,14.07
2018-08-04T07:38:45.371Z,13.25
2018-08-04T07:41:13.776Z,12.28
2018-08-04T07:43:42.173Z,11.65
2018-08-04T07:46:10.449Z,11.50
2018-08-04T07:48:38.890Z,12.45
2018-08-04T07:51:07.183Z,12.18
2018-08-04T07:53:35.521Z,11.03
2018-08-04T07:56:03.905Z,11.35
2018-08-04T07:58:32.198Z,10.63
2018-08-04T08:01:00.455Z,10.75
2018-08-04T08:03:28.861Z,10.75
2018-08-04T08:05:57.319Z,10.53
2018-08-04T08:08:25.574Z,11.95
2018-08-04T08:10:54.017Z,13.15
2018-08-04T08:13:22.153Z,12.75
2018-08-04T08:15:50.511Z,12.58
2018-08-04T08:18:18.922Z,13.38
2018-08-04T08:20:48.722Z,12.00
2018-08-04T08:23:17.145Z,12.15
2018-08-04T08:25:56.730Z,12.75
2018-08-04T08:28:25.017Z,12.30
2018-08-04T08:30:57.678Z,11.65
2018-08-04T08:33:25.945Z,11.93
2018-08-04T08:35:54.376Z,12.13
2018-08-04T08:38:26.360Z,11.63
2018-08-04T08:40:54.613Z,11.50
2018-08-04T08:43:22.973Z,11.78
2018-08-04T08:45:51.376Z,12.05
2018-08-04T08:48:19.816Z,12.15
2018-08-04T08:50:48.128Z,11.55
2018-08-04T08:53:16.450Z,11.40
2018-08-04T08:55:44.853Z,10.78
2018-08-04T08:58:12.828Z,11.35
2018-08-04T09:00:41.128Z,11.20
2018-08-04T09:03:09.445Z,11.20
2018-08-04T09:05:37.846Z,11.12
2018-08-04T09:08:06.311Z,10.30
2018-08-04T09:10:34.757Z,11.05
2018-08-04T09:13:03.087Z,11.12
2018-08-04T09:15:31.538Z,11.08
2018-08-04T09:17:59.986Z,10.70
2018-08-04T09:20:40.593Z,11.12
2018-08-04T09:23:09.292Z,10.98
2018-08-04T09:25:38.159Z,11.43
2018-08-04T09:28:10.464Z,10.85
2018-08-04T09:30:39.417Z,10.40
2018-08-04T09:33:08.557Z,11.53
2018-08-04T09:35:37.417Z,11.10
2018-08-04T09:38:06.317Z,10.18
2018-08-04T09:40:34.612Z,10.85
2018-08-04T09:43:03.369Z,11.00
2018-08-04T09:45:32.133Z,10.70
2018-08-04T09:48:00.971Z,9.95
2018-08-04T09:50:29.266Z,9.23
2018-08-04T09:52:57.995Z,9.78
2018-08-04T09:55:26.747Z,9.05
2018-08-04T09:57:55.596Z,9.25
2018-08-04T10:00:27.329Z,9.60
2018-08-04T10:02:57.329Z,9.30
2018-08-04T10:05:26.228Z,9.43
2018-08-04T10:07:54.496Z,9.25
2018-08-04T10:10:22.765Z,8.20
2018-08-04T10:12:52.425Z,8.18
2018-08-04T10:15:21.266Z,7.03
2018-08-04T10:17:50.067Z,7.10
2018-08-04T10:20:18.916Z,7.55
2018-08-04T10:22:47.665Z,6.33
2018-08-04T10:25:16.342Z,5.55
2018-08-04T10:27:44.681Z,7.08
2018-08-04T10:30:13.354Z,7.42
2018-08-04T10:32:42.361Z,6.25
2018-08-04T10:38:00.970Z,7.60
2018-08-04T10:40:29.346Z,7.95
2018-08-04T10:42:58.796Z,8.43
2018-08-04T10:45:27.614Z,7.87
2018-08-04T10:47:56.985Z,7.15
2018-08-04T10:50:26.900Z,7.20
2018-08-04T10:53:02.200Z,8.00
2018-08-04T10:55:30.878Z,8.23
2018-08-04T10:58:20.001Z,7.85
2018-08-04T11:00:48.607Z,7.90
2018-08-04T11:03:17.197Z,7.40
2018-08-04T11:05:45.896Z,6.78
2018-08-04T11:08:14.854Z,7.42
2018-08-04T11:10:43.685Z,6.58
2018-08-04T11:13:12.315Z,7.35
2018-08-04T11:15:41.296Z,7.20
2018-08-04T11:18:10.047Z,7.30
2018-08-04T11:20:41.760Z,7.25
2018-08-04T11:23:10.438Z,7.37
2018-08-04T11:25:39.731Z,7.12
2018-08-04T11:28:08.868Z,7.50
2018-08-04T11:30:57.630Z,7.12
2018-08-04T11:33:29.384Z,7.67
2018-08-04T11:35:58.060Z,7.33
2018-08-04T11:38:27.480Z,6.90
2018-08-04T11:40:56.313Z,6.90
2018-08-04T11:43:25.287Z,7.08
2018-08-04T11:45:54.106Z,6.50
2018-08-04T11:48:22.823Z,7.03
2018-08-04T11:50:51.515Z,7.30
2018-08-04T11:53:20.168Z,7.10
2018-08-04T11:55:49.011Z,8.05
2018-08-04T11:58:17.733Z,7.85
2018-08-04T12:00:46.487Z,7.70
2018-08-04T12:03:15.678Z,7.62
2018-08-04T12:05:44.919Z,7.08
2018-08-04T12:08:13.733Z,7.37
2018-08-04T12:10:41.980Z,8.03
2018-08-04T12:13:10.257Z,7.30
2018-08-04T12:15:38.498Z,7.65
2018-08-04T12:18:06.787Z,7.87
2018-08-04T12:20:35.025Z,7.42
2018-08-04T12:23:03.336Z,6.78
2018-08-04T12:25:31.591Z,7.70
2018-08-04T12:27:59.904Z,6.90
2018-08-04T12:30:28.155Z,7.20
2018-08-04T12:32:56.451Z,7.40
2018-08-04T12:35:26.536Z,7.25
2018-08-04T12:37:54.771Z,7.20
2018-08-04T12:40:23.005Z,7.12
2018-08-04T12:42:51.224Z,6.85
2018-08-04T12:45:19.490Z,7.15
2018-08-04T12:47:47.832Z,7.00
2018-08-04T12:50:16.077Z,7.25
2018-08-04T12:52:44.311Z,7.12
2018-08-04T12:55:12.549Z,6.95
2018-08-04T12:57:40.799Z,6.70
2018-08-04T13:00:09.348Z,7.05
2018-08-04T13:02:37.632Z,6.67
2018-08-04T13:05:06.414Z,6.90
2018-08-04T13:07:34.678Z,6.25
2018-08-04T13:10:02.951Z,6.92
2018-08-04T13:12:31.197Z,6.50
2018-08-04T13:14:59.216Z,6.62
2018-08-04T13:17:27.482Z,6.58
2018-08-04T13:19:56.063Z,6.85
2018-08-04T13:22:24.996Z,6.70
2018-08-04T13:24:55.902Z,5.95
2018-08-04T13:27:24.134Z,6.37
2018-08-04T13:29:52.526Z,5.85
2018-08-04T13:32:20.888Z,6.30
2018-08-04T13:34:49.201Z,6.45
2018-08-04T13:37:17.464Z,6.00
2018-08-04T13:39:45.681Z,6.08
2018-08-04T13:42:14.265Z,6.42
2018-08-04T13:44:43.129Z,6.33
2018-08-04T13:47:11.388Z,5.95
2018-08-04T13:49:39.670Z,6.33
2018-08-04T13:52:08.088Z,5.83
2018-08-04T13:54:36.320Z,6.20
2018-08-04T13:57:04.557Z,5.80
2018-08-04T13:59:32.873Z,6.25
2018-08-04T14:02:01.133Z,5.92
2018-08-04T14:04:29.356Z,5.40
2018-08-04T14:06:57.598Z,6.40
2018-08-04T14:12:16.405Z,6.80
2018-08-04T14:14:44.670Z,6.70
2018-08-04T14:17:34.899Z,7.17
2018-08-04T14:20:03.157Z,6.90
2018-08-04T14:22:31.388Z,6.85
2018-08-04T14:24:59.611Z,6.97
2018-08-04T14:27:27.868Z,7.40
2018-08-04T14:29:56.093Z,6.60
2018-08-04T14:32:24.333Z,7.20
2018-08-04T14:34:52.602Z,7.05
2018-08-04T14:37:20.872Z,6.35
2018-08-04T14:39:49.145Z,6.33
2018-08-04T14:42:17.389Z,6.50
2018-08-04T14:44:45.813Z,6.78
2018-08-04T14:47:14.045Z,6.87
2018-08-04T14:49:42.313Z,7.08
2018-08-04T14:52:10.545Z,6.80
2018-08-04T14:54:38.819Z,7.20
2018-08-04T14:57:07.051Z,6.67
2018-08-04T14:59:35.320Z,6.97
2018-08-04T15:02:03.608Z,6.28
2018-08-04T15:04:31.849Z,6.95
2018-08-04T15:07:00.072Z,7.22
2018-08-04T15:09:28.087Z,6.95
2018-08-04T15:11:56.325Z,6.97
2018-08-04T15:14:24.535Z,7.53
2018-08-04T15:16:52.777Z,7.55
2018-08-04T15:19:21.073Z,8.08
2018-08-04T15:21:49.363Z,7.53
2018-08-04T15:24:17.621Z,7.85
2018-08-04T15:26:45.885Z,7.70
2018-08-04T15:29:14.172Z,7.65
2018-08-04T15:31:42.403Z,7.30
2018-08-04T15:34:10.653Z,7.37
2018-08-04T15:36:38.930Z,7.62
2018-08-04T15:39:08.277Z,7.30
2018-08-04T15:41:36.616Z,7.40
2018-08-04T15:44:15.637Z,6.87
2018-08-04T15:46:43.985Z,6.80
2018-08-04T15:49:12.257Z,6.60
2018-08-04T15:51:41.099Z,5.90
2018-08-04T15:54:09.847Z,5.90
2018-08-04T15:56:38.777Z,6.40
2018-08-04T15:59:07.838Z,6.80
2018-08-04T16:01:36.700Z,6.72
2018-08-04T16:04:05.403Z,6.62
2018-08-04T16:06:33.769Z,6.45
2018-08-04T16:09:02.635Z,6.62
2018-08-04T16:11:31.578Z,5.92
2018-08-04T16:14:00.377Z,6.58
2018-08-04T16:16:29.208Z,6.92
2018-08-04T16:18:57.229Z,6.15
2018-08-04T16:21:25.934Z,6.37
2018-08-04T16:23:54.639Z,6.78
2018-08-04T16:29:02.038Z,6.00
2018-08-04T16:31:30.924Z,6.08
2018-08-04T16:34:00.127Z,6.28
2018-08-04T16:36:29.503Z,6.08
2018-08-04T16:38:58.226Z,6.47
2018-08-04T16:41:27.102Z,6.22
2018-08-04T16:43:56.542Z,6.00
2018-08-04T16:46:25.206Z,6.25
2018-08-04T16:48:54.308Z,6.35
2018-08-04T16:51:23.035Z,6.40
2018-08-04T16:53:53.530Z,6.60
2018-08-04T16:56:22.481Z,6.15
2018-08-04T16:58:50.795Z,6.30
2018-08-04T17:01:19.062Z,6.37
2018-08-04T17:03:47.772Z,5.92
2018-08-04T17:06:16.598Z,6.33
2018-08-04T17:08:45.214Z,6.28
2018-08-04T17:11:13.998Z,6.40
2018-08-04T17:13:42.267Z,6.35
2018-08-04T17:16:10.708Z,6.37
2018-08-04T17:18:39.809Z,6.83
2018-08-04T17:21:08.526Z,7.55
2018-08-04T17:23:37.169Z,7.25
2018-08-04T17:26:05.859Z,7.78
2018-08-04T17:28:34.543Z,7.08
2018-08-04T17:31:03.552Z,8.15
2018-08-04T17:33:32.297Z,7.40
2018-08-04T17:36:00.983Z,7.45
2018-08-04T17:38:29.685Z,7.60
2018-08-04T17:40:58.488Z,7.92
2018-08-04T17:43:27.271Z,7.92
2018-08-04T17:45:55.774Z,7.47
2018-08-04T17:48:24.511Z,7.80
2018-08-04T17:50:53.218Z,7.72
2018-08-04T17:53:22.109Z,7.00
2018-08-04T17:55:50.855Z,7.90
2018-08-04T17:58:19.579Z,7.75
2018-08-04T18:00:48.252Z,8.60
2018-08-04T18:03:16.889Z,9.18
2018-08-04T18:05:45.532Z,8.00
2018-08-04T18:08:13.869Z,8.65
2018-08-04T18:10:42.800Z,8.80
2018-08-04T18:13:11.527Z,8.88
2018-08-04T18:15:40.317Z,9.05
2018-08-04T18:18:09.004Z,8.55
2018-08-04T18:20:37.770Z,8.80
2018-08-04T18:23:06.559Z,9.30
2018-08-04T18:25:35.483Z,8.70
2018-08-04T18:28:04.277Z,8.65
2018-08-04T18:30:33.102Z,9.08
2018-08-04T18:33:01.891Z,9.33
2018-08-04T18:35:30.600Z,9.00
2018-08-04T18:37:59.347Z,9.10
2018-08-04T18:40:27.982Z,9.25
2018-08-04T18:42:56.706Z,10.13
2018-08-04T18:45:25.499Z,10.50
2018-08-04T18:47:54.181Z,9.88
2018-08-04T18:50:22.929Z,9.65
2018-08-04T18:52:55.428Z,9.05
2018-08-04T18:55:25.286Z,10.03
2018-08-04T18:57:53.968Z,10.20
2018-08-04T19:00:22.787Z,9.28
2018-08-04T19:02:51.575Z,9.10
2018-08-04T19:05:20.310Z,9.70
2018-08-04T19:07:49.155Z,9.83
2018-08-04T19:10:17.894Z,9.78
2018-08-04T19:12:46.531Z,9.78
2018-08-04T19:15:15.197Z,10.30
2018-08-04T19:17:43.901Z,9.95
2018-08-04T19:20:12.612Z,10.00
2018-08-04T19:22:41.465Z,9.30
2018-08-04T19:25:10.306Z,9.57
2018-08-04T19:27:40.714Z,8.28
2018-08-04T19:30:09.485Z,8.17
2018-08-04T19:32:37.754Z,8.08
2018-08-04T19:35:06.522Z,7.33
2018-08-04T19:37:35.319Z,7.65
2018-08-04T19:40:09.882Z,7.70
2018-08-04T19:42:38.829Z,8.23
2018-08-04T19:45:07.676Z,8.10
2018-08-04T19:47:36.395Z,7.53
2018-08-04T19:50:23.371Z,7.50
2018-08-04T19:52:52.244Z,8.17
2018-08-04T19:55:21.481Z,7.60
2018-08-04T19:57:50.818Z,7.62
2018-08-04T20:00:19.578Z,7.80
2018-08-04T20:02:48.417Z,8.70
2018-08-04T20:08:08.372Z,8.13
2018-08-04T20:10:37.184Z,8.33
2018-08-04T20:13:06.091Z,7.97
2018-08-04T20:15:34.518Z,8.30
2018-08-04T20:18:03.216Z,8.73
2018-08-04T20:20:32.206Z,8.10
2018-08-04T20:23:00.516Z,9.07
2018-08-04T20:25:29.066Z,9.10
2018-08-04T20:27:57.369Z,8.77
2018-08-04T20:30:25.938Z,8.83
2018-08-04T20:32:54.335Z,8.67
2018-08-04T20:35:22.422Z,9.10
2018-08-04T20:37:50.919Z,9.03
2018-08-04T20:40:18.954Z,9.00
2018-08-04T20:42:47.527Z,8.87
2018-08-04T20:45:15.882Z,8.63
2018-08-04T20:47:44.371Z,8.27
2018-08-04T20:50:12.798Z,8.40
2018-08-04T20:52:41.610Z,8.53
2018-08-04T20:55:09.942Z,9.13
2018-08-04T20:57:39.134Z,9.47
2018-08-04T21:00:07.446Z,9.30
2018-08-04T21:02:35.723Z,9.20
2018-08-04T21:05:04.321Z,9.00
2018-08-04T21:07:32.619Z,9.07
2018-08-04T21:10:00.933Z,9.40
2018-08-04T21:12:29.239Z,9.50
2018-08-04T21:14:57.518Z,9.00
2018-08-04T21:17:25.784Z,10.47
2018-08-04T21:19:54.326Z,9.93
2018-08-04T21:22:22.610Z,9.67
2018-08-04T21:24:50.917Z,10.20
2018-08-04T21:27:19.174Z,9.27
2018-08-04T21:29:47.444Z,9.80
2018-08-04T21:32:15.714Z,9.53
2018-08-04T21:34:44.028Z,9.60
2018-08-04T21:37:12.367Z,9.80
2018-08-04T21:42:30.822Z,9.80
2018-08-04T21:44:59.099Z,9.60
2018-08-04T21:48:38.790Z,9.93
2018-08-04T21:51:07.078Z,9.80
2018-08-04T21:53:35.394Z,9.53
2018-08-04T21:56:03.766Z,9.77
2018-08-04T21:58:31.993Z,10.50
2018-08-04T22:01:05.692Z,10.20
2018-08-04T22:03:33.986Z,9.67
2018-08-04T22:06:02.323Z,10.13
2018-08-04T22:08:42.125Z,9.97
2018-08-04T22:11:10.408Z,10.47
2018-08-04T22:13:38.424Z,10.27
2018-08-04T22:16:06.738Z,10.43
2018-08-04T22:18:35.004Z,10.37
2018-08-04T22:21:03.286Z,10.27
2018-08-04T22:23:31.549Z,11.10
2018-08-04T22:25:59.826Z,10.43
2018-08-04T22:28:28.121Z,10.10
2018-08-04T22:30:56.391Z,10.83
2018-08-04T22:33:24.732Z,10.87
2018-08-04T22:35:52.992Z,10.93
2018-08-04T22:38:21.332Z,10.67
2018-08-04T22:40:49.622Z,10.67
2018-08-04T22:43:17.897Z,10.67
2018-08-04T22:46:14.636Z,10.43
2018-08-04T22:48:44.289Z,10.53
2018-08-04T22:51:12.610Z,11.17
2018-08-04T22:53:40.863Z,10.83
2018-08-04T22:56:09.079Z,11.03
2018-08-04T22:58:37.354Z,10.77
2018-08-04T23:01:05.881Z,10.83
2018-08-04T23:06:14.481Z,10.93
2018-08-04T23:08:42.506Z,10.63
2018-08-04T23:11:10.786Z,11.20
2018-08-04T23:13:39.106Z,11.00
2018-08-04T23:16:08.047Z,10.63
2018-08-04T23:18:36.315Z,10.53
2018-08-04T23:21:04.574Z,10.77
2018-08-04T23:23:32.898Z,11.23
2018-08-04T23:26:01.157Z,11.23
2018-08-04T23:28:29.428Z,11.30
2018-08-04T23:30:57.692Z,10.97
2018-08-04T23:33:26.007Z,11.27
2018-08-04T23:35:54.262Z,11.20
2018-08-04T23:38:22.521Z,11.67
2018-08-04T23:40:50.786Z,10.73
2018-08-04T23:43:19.047Z,11.33
2018-08-04T23:48:33.223Z,10.73
2018-08-04T23:51:01.495Z,11.07
2018-08-04T23:53:29.765Z,10.43
2018-08-04T23:55:58.030Z,10.27
2018-08-04T23:58:26.306Z,10.50
